Burnet's Hourly Summary for Saturday, May 12, 2018
Hour Temp
(f)
RH
(%)
Solar Rad.
(MJ/m2)
Rainfall
(in)
Wind
(mph)
5/12/2018 12:00 AM 74 79 0 0 6.98
5/12/2018 1:00 AM 72 84 0 0 6.16
5/12/2018 2:00 AM 72 86 0 0 5.61
5/12/2018 3:00 AM 71 86 0 0 5.25
5/12/2018 4:00 AM 70 86 0 0 5.89
5/12/2018 5:00 AM 69 88 0 0 5.16
5/12/2018 6:00 AM 68 90 0 0 4.28
5/12/2018 7:00 AM 68 90 0.01 0 3.69
5/12/2018 8:00 AM 70 88 0.35 0 3.99
5/12/2018 9:00 AM 74 81 0.77 0 6.13
5/12/2018 10:00 AM 75 63 1.6 0 6.15
5/12/2018 11:00 AM 78 62 1.64 0 5.36
5/12/2018 12:00 PM 81 53 2.4 0 6.48
5/12/2018 1:00 PM 83 47 3.22 0 7
5/12/2018 2:00 PM 85 45 2.84 0 6.78
5/12/2018 3:00 PM 86 45 2.07 0 6.43
5/12/2018 4:00 PM 87 42 0.76 0 6.9
5/12/2018 5:00 PM 87 42 2.19 0 6.82
5/12/2018 6:00 PM 87 43 1.08 0 6.96
5/12/2018 7:00 PM 86 43 1.15 0 6.36
5/12/2018 8:00 PM 85 47 0.37 0 5.43
5/12/2018 9:00 PM 82 54 0.01 0 3.47
5/12/2018 10:00 PM 80 63 0 0 4.92
5/12/2018 11:00 PM 78 70 0 0 5.74
Data Summary 77 65 20.46 0.00 5.75